Gunilla — SERW — position and weather

sailwx.info

Track history (hours):
 
Tides and Currents Weather Stations Pressure Air Temp Water Temp Dewpoint Dewpoint Depression Visibility Wind Speed Wind Dir Waves Ship Positions

Gunilla (Sweden)

Ship's website: http://www.gunilla.nu/engelsk/frameset_english.htm

Last reported at 2018-Jun-17 12:07 UTC. Time now 2018-Jun-19 01:27 UTC.
Position N 51°33' E 002°21'.

Length 49.4 m; beam 8.4 m; draft 2.7 m.

Type: Sailing vessel. MMSI: 265318000.

Date/timePositionNaut miles runAvg speedWind from/ knotsBaromVisibWave heightAir tempDewpointWater temp
2018-Jun-17 12:07N 51°33' E 002°21'1 2.9
2018-Jun-17 11:44N 51°32' E 002°20'1 2.8
2018-Jun-17 11:27N 51°31' E 002°19'1 2.8
2018-Jun-17 10:59N 51°30' E 002°18'2 3.0
2018-Jun-17 10:28N 51°29' E 002°17'1 3.1
2018-Jun-17 10:00N 51°28' E 002°16'2 3.2
2018-Jun-17 09:30N 51°27' E 002°14'1 2.8
2018-Jun-17 08:58N 51°25' E 002°13'2 4.0
2018-Jun-17 08:27N 51°24' E 002°11'2 4.7
2018-Jun-17 07:58N 51°22' E 002°09'3 6.0
2018-Jun-17 07:23N 51°18' E 002°07'4 6.6
2018-Jun-17 06:51N 51°15' E 002°05'2 5.9
2018-Jun-17 06:30N 51°14' E 002°02'3 5.6
2018-Jun-17 06:00N 51°12' E 001°59'3 5.7
2018-Jun-17 05:27N 51°10' E 001°54'3 6.0
2018-Jun-17 05:00N 51°09' E 001°51'3 6.8
2018-Jun-17 04:30N 51°07' E 001°47'4 7.7
2018-Jun-17 04:00N 51°04' E 001°43'4 7.9
2018-Jun-17 03:30N 51°01' E 001°39'5 9.0
2018-Jun-17 03:00N 50°57' E 001°34'14 9.8
2018-Jun-17 01:32N 50°44' E 001°25'2 8.9
2018-Jun-17 01:17N 50°42' E 001°23'4 8.1
2018-Jun-17 00:44N 50°39' E 001°19'83 5.7
2018-Jun-16 10:12N 50°37' W 000°52'1 6.9
2018-Jun-16 10:00N 50°38' W 000°54'3 6.5
2018-Jun-16 09:30N 50°41' W 000°57'4 7.2
2018-Jun-16 09:00N 50°43' W 001°01'4 8.1
2018-Jun-16 08:30N 50°46' W 001°05'2 3.6
2018-Jun-16 08:00N 50°48' W 001°07'0 0.0
2018-Jun-16 07:28N 50°48' W 001°07'0 0.0
2018-Jun-16 06:58N 50°48' W 001°07'0 0.0
2018-Jun-16 06:28N 50°48' W 001°07'0 0.0
2018-Jun-16 05:58N 50°48' W 001°07'0 0.0
2018-Jun-16 05:28N 50°48' W 001°07'0 0.0
2018-Jun-16 04:58N 50°48' W 001°07'0 0.0
2018-Jun-16 04:28N 50°48' W 001°07'0 0.0
2018-Jun-16 03:58N 50°48' W 001°07'0 0.0
2018-Jun-16 03:28N 50°48' W 001°07'0 0.0
2018-Jun-16 02:58N 50°48' W 001°07'0 0.0
2018-Jun-16 02:28N 50°48' W 001°07'0 0.0
2018-Jun-16 01:58N 50°48' W 001°07'0 0.0
2018-Jun-16 01:28N 50°48' W 001°07'0 0.0
2018-Jun-16 00:58N 50°48' W 001°07'0 0.0
2018-Jun-16 00:28N 50°48' W 001°07'0 0.0
2018-Jun-15 23:58N 50°48' W 001°07'0 0.0
2018-Jun-15 23:28N 50°48' W 001°07'0 0.0
2018-Jun-15 22:58N 50°48' W 001°07'0 0.0
2018-Jun-15 22:28N 50°48' W 001°07'0 0.0
2018-Jun-15 21:58N 50°48' W 001°07'0 0.0
2018-Jun-15 21:28N 50°48' W 001°07'0 0.0
2018-Jun-15 20:58N 50°48' W 001°07'0 0.0
2018-Jun-15 20:28N 50°48' W 001°07'0 0.0
2018-Jun-15 19:58N 50°48' W 001°07'0 0.0
2018-Jun-15 19:25N 50°48' W 001°07'0 0.0
2018-Jun-15 18:58N 50°48' W 001°07'0 0.0
2018-Jun-15 18:28N 50°48' W 001°07'0 0.0
2018-Jun-15 17:58N 50°48' W 001°07'0 0.0
2018-Jun-15 17:28N 50°48' W 001°07'0 0.0
2018-Jun-15 16:58N 50°48' W 001°07'0 0.0
2018-Jun-15 16:28N 50°48' W 001°07'0 0.0
2018-Jun-15 15:58N 50°48' W 001°07'0 0.0
2018-Jun-15 15:28N 50°48' W 001°07'0 0.0
2018-Jun-15 14:58N 50°48' W 001°07'0 0.0
2018-Jun-15 14:28N 50°48' W 001°07'0 0.0
2018-Jun-15 13:58N 50°48' W 001°07'0 0.0
2018-Jun-15 13:28N 50°48' W 001°07'0 0.0
2018-Jun-15 12:58N 50°48' W 001°07'0 0.0
2018-Jun-15 12:28N 50°48' W 001°07'0 0.0
2018-Jun-15 11:58N 50°48' W 001°07'0 0.0
2018-Jun-15 11:28N 50°48' W 001°07'0 0.0
2018-Jun-15 10:58N 50°48' W 001°07'0 0.0
2018-Jun-15 10:28N 50°48' W 001°07'0 0.0
2018-Jun-15 09:58N 50°48' W 001°07'0 0.0
2018-Jun-15 09:28N 50°48' W 001°07'0 0.0
2018-Jun-15 08:58N 50°48' W 001°07'0 0.0
2018-Jun-15 08:25N 50°48' W 001°07'0 0.0
2018-Jun-15 07:58N 50°48' W 001°07'0 0.0
2018-Jun-15 07:28N 50°48' W 001°07'0 0.0
2018-Jun-15 06:58N 50°48' W 001°07'0 0.0
2018-Jun-15 06:25N 50°48' W 001°07'0 0.0
2018-Jun-15 05:58N 50°48' W 001°07'0 0.0
2018-Jun-15 05:28N 50°48' W 001°07'0 0.0
2018-Jun-15 04:58N 50°48' W 001°07'0 0.0
2018-Jun-15 04:28N 50°48' W 001°07'0 0.0
2018-Jun-15 03:58N 50°48' W 001°07'0 0.0
2018-Jun-15 03:28N 50°48' W 001°07'0 0.0
2018-Jun-15 02:58N 50°48' W 001°07'0 0.0
2018-Jun-15 02:28N 50°48' W 001°07'0 0.0
2018-Jun-15 01:58N 50°48' W 001°07'0 0.0
2018-Jun-15 01:28N 50°48' W 001°07'0 0.0
2018-Jun-15 00:58N 50°48' W 001°07'0 0.0
2018-Jun-15 00:28N 50°48' W 001°07'0 0.0
2018-Jun-14 23:58N 50°48' W 001°07'0 0.0
2018-Jun-14 23:28N 50°48' W 001°07'0 0.0
2018-Jun-14 22:58N 50°48' W 001°07'0 0.0
2018-Jun-14 22:28N 50°48' W 001°07'0 0.0
2018-Jun-14 21:58N 50°48' W 001°07'0 0.0
2018-Jun-14 21:28N 50°48' W 001°07'0 0.0
2018-Jun-14 20:58N 50°48' W 001°07'0 0.0
2018-Jun-14 20:28N 50°48' W 001°07'0 0.0
2018-Jun-14 19:58N 50°48' W 001°07'0 0.0
2018-Jun-14 19:28N 50°48' W 001°07'0 0.0
2018-Jun-14 18:58N 50°48' W 001°07'0 0.0
2018-Jun-14 18:28N 50°48' W 001°07'0 0.0
2018-Jun-14 17:58N 50°48' W 001°07'0 0.0
2018-Jun-14 17:28N 50°48' W 001°07'0 0.0
2018-Jun-14 16:58N 50°48' W 001°07'0 0.0
2018-Jun-14 16:28N 50°48' W 001°07'0 0.0
2018-Jun-14 15:58N 50°48' W 001°07'0 0.0
2018-Jun-14 15:28N 50°48' W 001°07'0 0.0
2018-Jun-14 14:58N 50°48' W 001°07'0 0.0
2018-Jun-14 14:28N 50°48' W 001°07'0 0.0
2018-Jun-14 13:58N 50°48' W 001°07'0 0.0
2018-Jun-14 13:28N 50°48' W 001°07'0 0.0
2018-Jun-14 12:58N 50°48' W 001°07'0 0.0
2018-Jun-14 12:28N 50°48' W 001°07'0 0.0
2018-Jun-14 11:58N 50°48' W 001°07'0 0.0
2018-Jun-14 11:28N 50°48' W 001°07'0 0.0
2018-Jun-14 10:58N 50°48' W 001°07'0 0.0
2018-Jun-14 10:28N 50°48' W 001°07'0 0.0
2018-Jun-14 09:58N 50°48' W 001°07'0 0.0
2018-Jun-14 09:28N 50°48' W 001°07'0 0.0
2018-Jun-14 08:58N 50°48' W 001°07'0 0.0
2018-Jun-14 08:28N 50°48' W 001°07'0 0.0
2018-Jun-14 07:58N 50°48' W 001°07'0 0.0
2018-Jun-14 07:28N 50°48' W 001°07'0 0.0
2018-Jun-14 06:58N 50°48' W 001°07'0 0.0
2018-Jun-14 06:28N 50°48' W 001°07'0 0.0
2018-Jun-14 05:58N 50°48' W 001°07'0 0.0
2018-Jun-14 05:28N 50°48' W 001°07'0 0.0
2018-Jun-14 04:58N 50°48' W 001°07'0 0.0
2018-Jun-14 04:28N 50°48' W 001°07'0 0.0
2018-Jun-14 03:58N 50°48' W 001°07'0 0.0
2018-Jun-14 03:28N 50°48' W 001°07'0 0.0
2018-Jun-14 02:58N 50°48' W 001°07'0 0.0
2018-Jun-14 02:28N 50°48' W 001°07'0 0.0
2018-Jun-14 01:58N 50°48' W 001°07'0 0.0
2018-Jun-14 01:28N 50°48' W 001°07'0 0.0
2018-Jun-14 00:58N 50°48' W 001°07'0 0.0
2018-Jun-14 00:28N 50°48' W 001°07'0 0.0
2018-Jun-13 23:58N 50°48' W 001°07'0 0.0
2018-Jun-13 23:28N 50°48' W 001°07'0 0.0
2018-Jun-13 22:58N 50°48' W 001°07'0 0.0
2018-Jun-13 22:28N 50°48' W 001°07'0 0.0
2018-Jun-13 21:58N 50°48' W 001°07'0 0.0
2018-Jun-13 21:28N 50°48' W 001°07'0 0.0
2018-Jun-13 20:58N 50°48' W 001°07'0 0.0
2018-Jun-13 20:28N 50°48' W 001°07'0 0.0
2018-Jun-13 19:58N 50°48' W 001°07'0 0.0
2018-Jun-13 19:28N 50°48' W 001°07'0 0.0
2018-Jun-13 18:58N 50°48' W 001°07'0 0.0
2018-Jun-13 18:28N 50°48' W 001°07'0 0.0
2018-Jun-13 17:58N 50°48' W 001°07'0 0.0
2018-Jun-13 17:28N 50°48' W 001°07'0 0.0
2018-Jun-13 16:58N 50°48' W 001°07'0 0.0
2018-Jun-13 16:28N 50°48' W 001°07'0 0.0
2018-Jun-13 15:58N 50°48' W 001°07'0 0.0
2018-Jun-13 15:28N 50°48' W 001°07'0 0.0
2018-Jun-13 14:58N 50°48' W 001°07'0 0.0
2018-Jun-13 14:28N 50°48' W 001°07'0 0.0
2018-Jun-13 13:58N 50°48' W 001°07'0 0.0
2018-Jun-13 13:28N 50°48' W 001°07'0 0.0
2018-Jun-13 12:58N 50°48' W 001°07'0 0.0
2018-Jun-13 12:28N 50°48' W 001°07'0 0.0
2018-Jun-13 11:58N 50°48' W 001°07'0 0.0
2018-Jun-13 11:28N 50°48' W 001°07'0 0.0
2018-Jun-13 10:58N 50°48' W 001°07'0 0.0
2018-Jun-13 10:25N 50°48' W 001°07'0 0.0
2018-Jun-13 09:58N 50°48' W 001°07'0 0.0
2018-Jun-13 09:25N 50°48' W 001°07'0 0.0
2018-Jun-13 08:58N 50°48' W 001°07'0 0.0
2018-Jun-13 08:28N 50°48' W 001°07'0 0.0
2018-Jun-13 07:58N 50°48' W 001°07'0 0.0
2018-Jun-13 07:28N 50°48' W 001°07'0 0.0
2018-Jun-13 06:58N 50°48' W 001°07'0 0.0
2018-Jun-13 06:28N 50°48' W 001°07'0 0.0
2018-Jun-13 05:58N 50°48' W 001°07'0 0.0
2018-Jun-13 05:31N 50°48' W 001°07'0 0.0
2018-Jun-13 04:58N 50°48' W 001°07'0 0.0
2018-Jun-13 04:28N 50°48' W 001°07'0 0.0
2018-Jun-13 03:55N 50°48' W 001°07'0 0.0
2018-Jun-13 03:25N 50°48' W 001°07'0 0.0
2018-Jun-13 02:58N 50°48' W 001°07'0 0.0
2018-Jun-13 02:25N 50°48' W 001°07'0 0.0
2018-Jun-13 01:58N 50°48' W 001°07'0 0.0
2018-Jun-13 01:28N 50°48' W 001°07'0 0.0
2018-Jun-13 00:58N 50°48' W 001°07'0 0.0
2018-Jun-13 00:31N 50°48' W 001°07'0 0.0
2018-Jun-12 23:58N 50°48' W 001°07'0 0.0
2018-Jun-12 23:28N 50°48' W 001°07'0 0.0
2018-Jun-12 22:58N 50°48' W 001°07'0 0.0
2018-Jun-12 22:28N 50°48' W 001°07'0 0.0
2018-Jun-12 21:58N 50°48' W 001°07'0 0.0
2018-Jun-12 21:28N 50°48' W 001°07'0 0.0
2018-Jun-12 20:58N 50°48' W 001°07'0 0.0
2018-Jun-12 20:28N 50°48' W 001°07'0 0.0
2018-Jun-12 19:58N 50°48' W 001°07'0 0.0
2018-Jun-12 19:28N 50°48' W 001°07'0 0.0
2018-Jun-12 18:58N 50°48' W 001°07'0 0.0
2018-Jun-12 18:27N 50°48' W 001°07'0 0.0
2018-Jun-12 17:58N 50°48' W 001°07'0 0.0
2018-Jun-12 17:28N 50°48' W 001°07'0 0.0
2018-Jun-12 17:00N 50°48' W 001°07'0 0.0
2018-Jun-12 16:31N 50°48' W 001°07'0 0.0
2018-Jun-12 15:58N 50°48' W 001°07'0 0.0
2018-Jun-12 15:28N 50°48' W 001°07'0 0.0
2018-Jun-12 14:58N 50°48' W 001°07'0 0.0
2018-Jun-12 14:31N 50°48' W 001°07'0 0.0
2018-Jun-12 14:01N 50°48' W 001°07'0 0.0
2018-Jun-12 13:31N 50°48' W 001°07'0 0.0
2018-Jun-12 12:58N 50°48' W 001°07'0 0.0
2018-Jun-12 12:31N 50°48' W 001°07'0 0.0
2018-Jun-12 12:01N 50°48' W 001°07'0 0.0
2018-Jun-12 11:31N 50°48' W 001°07'0 0.0
2018-Jun-12 10:58N 50°48' W 001°07'0 0.0
2018-Jun-12 10:28N 50°48' W 001°07'0 0.6
2018-Jun-12 10:00N 50°47' W 001°07'4 7.3
2018-Jun-12 09:30N 50°44' W 001°04'2 3.2
2018-Jun-12 09:00N 50°43' W 001°03'0 0.2
2018-Jun-12 08:28N 50°43' W 001°03'0 0.0
2018-Jun-12 07:58N 50°43' W 001°03'0 0.0
2018-Jun-12 07:28N 50°43' W 001°03'0 0.0
2018-Jun-12 06:58N 50°42' W 001°03'0 0.0
2018-Jun-12 06:28N 50°42' W 001°03'0 0.0
2018-Jun-12 05:55N 50°42' W 001°03'0 0.0
2018-Jun-12 05:13N 50°42' W 001°03'0 0.0
2018-Jun-12 04:58N 50°42' W 001°03'0 0.0
2018-Jun-12 04:22N 50°42' W 001°03'0 0.0
2018-Jun-12 03:58N 50°42' W 001°03'0 0.0
2018-Jun-12 03:28N 50°42' W 001°03'0 0.0
2018-Jun-12 02:58N 50°42' W 001°03'0 0.0
2018-Jun-12 02:25N 50°42' W 001°03'0 0.0
2018-Jun-12 01:58N 50°42' W 001°03'0 0.0
2018-Jun-12 01:28N 50°42' W 001°03'0 0.0
2018-Jun-12 00:55N 50°42' W 001°03'0 0.0
2018-Jun-12 00:28N 50°42' W 001°03'0 0.0
2018-Jun-11 23:58N 50°42' W 001°03'0 0.0
2018-Jun-11 23:28N 50°43' W 001°03'0 0.0
2018-Jun-11 22:58N 50°43' W 001°03'0 0.0
2018-Jun-11 22:28N 50°43' W 001°03'0 0.0
2018-Jun-11 21:58N 50°43' W 001°03'0 0.0
2018-Jun-11 21:28N 50°43' W 001°03'0 0.0
2018-Jun-11 20:58N 50°43' W 001°03'0 0.0
2018-Jun-11 20:28N 50°43' W 001°03'0 0.0
2018-Jun-11 19:58N 50°43' W 001°03'0 0.0
2018-Jun-11 19:28N 50°43' W 001°03'0 0.0
2018-Jun-11 18:58N 50°43' W 001°03'0 0.0
2018-Jun-11 18:28N 50°43' W 001°03'0 0.0
2018-Jun-11 17:58N 50°43' W 001°03'0 0.0
2018-Jun-11 17:28N 50°42' W 001°03'0 0.0
2018-Jun-11 16:58N 50°43' W 001°03'0 0.0
2018-Jun-11 16:28N 50°43' W 001°03'0 0.0
2018-Jun-11 15:58N 50°43' W 001°03'0 0.0
2018-Jun-11 15:28N 50°43' W 001°03'0 0.0
2018-Jun-11 14:58N 50°43' W 001°03'0 0.0
2018-Jun-11 14:28N 50°43' W 001°03'0 0.0
2018-Jun-11 13:58N 50°42' W 001°03'0 0.0
2018-Jun-11 13:28N 50°42' W 001°03'0 0.0
2018-Jun-11 12:58N 50°42' W 001°03'0 0.0
2018-Jun-11 12:28N 50°42' W 001°03'0 0.0
2018-Jun-11 11:58N 50°42' W 001°03'0 0.0
2018-Jun-11 11:28N 50°43' W 001°03'0 0.1
2018-Jun-11 10:58N 50°43' W 001°03'0 0.0
2018-Jun-11 10:28N 50°43' W 001°03'0 0.5
2018-Jun-11 10:00N 50°43' W 001°03'3 5.9
2018-Jun-11 09:30N 50°40' W 000°60'3 6.0
2018-Jun-11 08:59N 50°37' W 000°60'20 6.9
2018-Jun-11 06:03N 50°29' W 001°29'0 8.4
2018-Jun-11 06:00N 50°29' W 001°29'54 6.0
2018-Jun-10 20:57N 50°13' W 002°51'3 6.2
2018-Jun-10 20:27N 50°13' W 002°56'3 6.9
2018-Jun-10 20:00N 50°12' W 003°01'4 7.2
2018-Jun-10 19:30N 50°11' W 003°06'4 7.2
2018-Jun-10 19:00N 50°10' W 003°11'4 7.3
2018-Jun-10 18:30N 50°09' W 003°17'4 7.3
2018-Jun-10 18:01N 50°08' W 003°22'4 7.5
2018-Jun-10 17:31N 50°07' W 003°28'4 7.5
2018-Jun-10 17:01N 50°06' W 003°34'4 7.5
2018-Jun-10 16:28N 50°05' W 003°40'9 7.0
2018-Jun-10 15:09N 50°03' W 003°54'1 6.9
2018-Jun-10 14:57N 50°02' W 003°56'  
Track history (hours):
 
Tides and Currents Weather Stations Pressure Air Temp Water Temp Dewpoint Dewpoint Depression Visibility Wind Speed Wind Dir Waves Ship Positions

Gunilla (Sweden)

Ship's website: http://www.gunilla.nu/engelsk/frameset_english.htm

Last reported at 2018-Jun-17 12:07 UTC. Time now 2018-Jun-19 01:27 UTC.
Position N 51°33' E 002°21'.

Length 49.4 m; beam 8.4 m; draft 2.7 m.

Type: Sailing vessel. MMSI: 265318000.

Date/timePositionNaut miles runAvg speedWind from/ knotsBaromVisibWave heightAir tempDewpointWater temp
2018-Jun-17 12:07N 51°33' E 002°21'1 2.9
2018-Jun-17 11:44N 51°32' E 002°20'1 2.8
2018-Jun-17 11:27N 51°31' E 002°19'1 2.8
2018-Jun-17 10:59N 51°30' E 002°18'2 3.0
2018-Jun-17 10:28N 51°29' E 002°17'1 3.1
2018-Jun-17 10:00N 51°28' E 002°16'2 3.2
2018-Jun-17 09:30N 51°27' E 002°14'1 2.8
2018-Jun-17 08:58N 51°25' E 002°13'2 4.0
2018-Jun-17 08:27N 51°24' E 002°11'2 4.7
2018-Jun-17 07:58N 51°22' E 002°09'3 6.0
2018-Jun-17 07:23N 51°18' E 002°07'4 6.6
2018-Jun-17 06:51N 51°15' E 002°05'2 5.9
2018-Jun-17 06:30N 51°14' E 002°02'3 5.6
2018-Jun-17 06:00N 51°12' E 001°59'3 5.7
2018-Jun-17 05:27N 51°10' E 001°54'3 6.0
2018-Jun-17 05:00N 51°09' E 001°51'3 6.8
2018-Jun-17 04:30N 51°07' E 001°47'4 7.7
2018-Jun-17 04:00N 51°04' E 001°43'4 7.9
2018-Jun-17 03:30N 51°01' E 001°39'5 9.0
2018-Jun-17 03:00N 50°57' E 001°34'14 9.8
2018-Jun-17 01:32N 50°44' E 001°25'2 8.9
2018-Jun-17 01:17N 50°42' E 001°23'4 8.1
2018-Jun-17 00:44N 50°39' E 001°19'83 5.7
2018-Jun-16 10:12N 50°37' W 000°52'1 6.9
2018-Jun-16 10:00N 50°38' W 000°54'3 6.5
2018-Jun-16 09:30N 50°41' W 000°57'4 7.2
2018-Jun-16 09:00N 50°43' W 001°01'4 8.1
2018-Jun-16 08:30N 50°46' W 001°05'2 3.6
2018-Jun-16 08:00N 50°48' W 001°07'0 0.0
2018-Jun-16 07:28N 50°48' W 001°07'0 0.0
2018-Jun-16 06:58N 50°48' W 001°07'0 0.0
2018-Jun-16 06:28N 50°48' W 001°07'0 0.0
2018-Jun-16 05:58N 50°48' W 001°07'0 0.0
2018-Jun-16 05:28N 50°48' W 001°07'0 0.0
2018-Jun-16 04:58N 50°48' W 001°07'0 0.0
2018-Jun-16 04:28N 50°48' W 001°07'0 0.0
2018-Jun-16 03:58N 50°48' W 001°07'0 0.0
2018-Jun-16 03:28N 50°48' W 001°07'0 0.0
2018-Jun-16 02:58N 50°48' W 001°07'0 0.0
2018-Jun-16 02:28N 50°48' W 001°07'0 0.0
2018-Jun-16 01:58N 50°48' W 001°07'0 0.0
2018-Jun-16 01:28N 50°48' W 001°07'0 0.0
2018-Jun-16 00:58N 50°48' W 001°07'0 0.0
2018-Jun-16 00:28N 50°48' W 001°07'0 0.0
2018-Jun-15 23:58N 50°48' W 001°07'0 0.0
2018-Jun-15 23:28N 50°48' W 001°07'0 0.0
2018-Jun-15 22:58N 50°48' W 001°07'0 0.0
2018-Jun-15 22:28N 50°48' W 001°07'0 0.0
2018-Jun-15 21:58N 50°48' W 001°07'0 0.0
2018-Jun-15 21:28N 50°48' W 001°07'0 0.0
2018-Jun-15 20:58N 50°48' W 001°07'0 0.0
2018-Jun-15 20:28N 50°48' W 001°07'0 0.0
2018-Jun-15 19:58N 50°48' W 001°07'0 0.0
2018-Jun-15 19:25N 50°48' W 001°07'0 0.0
2018-Jun-15 18:58N 50°48' W 001°07'0 0.0
2018-Jun-15 18:28N 50°48' W 001°07'0 0.0
2018-Jun-15 17:58N 50°48' W 001°07'0 0.0
2018-Jun-15 17:28N 50°48' W 001°07'0 0.0
2018-Jun-15 16:58N 50°48' W 001°07'0 0.0
2018-Jun-15 16:28N 50°48' W 001°07'0 0.0
2018-Jun-15 15:58N 50°48' W 001°07'0 0.0
2018-Jun-15 15:28N 50°48' W 001°07'0 0.0
2018-Jun-15 14:58N 50°48' W 001°07'0 0.0
2018-Jun-15 14:28N 50°48' W 001°07'0 0.0
2018-Jun-15 13:58N 50°48' W 001°07'0 0.0
2018-Jun-15 13:28N 50°48' W 001°07'0 0.0
2018-Jun-15 12:58N 50°48' W 001°07'0 0.0
2018-Jun-15 12:28N 50°48' W 001°07'0 0.0
2018-Jun-15 11:58N 50°48' W 001°07'0 0.0
2018-Jun-15 11:28N 50°48' W 001°07'0 0.0
2018-Jun-15 10:58N 50°48' W 001°07'0 0.0
2018-Jun-15 10:28N 50°48' W 001°07'0 0.0
2018-Jun-15 09:58N 50°48' W 001°07'0 0.0
2018-Jun-15 09:28N 50°48' W 001°07'0 0.0
2018-Jun-15 08:58N 50°48' W 001°07'0 0.0
2018-Jun-15 08:25N 50°48' W 001°07'0 0.0
2018-Jun-15 07:58N 50°48' W 001°07'0 0.0
2018-Jun-15 07:28N 50°48' W 001°07'0 0.0
2018-Jun-15 06:58N 50°48' W 001°07'0 0.0
2018-Jun-15 06:25N 50°48' W 001°07'0 0.0
2018-Jun-15 05:58N 50°48' W 001°07'0 0.0
2018-Jun-15 05:28N 50°48' W 001°07'0 0.0
2018-Jun-15 04:58N 50°48' W 001°07'0 0.0
2018-Jun-15 04:28N 50°48' W 001°07'0 0.0
2018-Jun-15 03:58N 50°48' W 001°07'0 0.0
2018-Jun-15 03:28N 50°48' W 001°07'0 0.0
2018-Jun-15 02:58N 50°48' W 001°07'0 0.0
2018-Jun-15 02:28N 50°48' W 001°07'0 0.0
2018-Jun-15 01:58N 50°48' W 001°07'0 0.0
2018-Jun-15 01:28N 50°48' W 001°07'0 0.0
2018-Jun-15 00:58N 50°48' W 001°07'0 0.0
2018-Jun-15 00:28N 50°48' W 001°07'0 0.0
2018-Jun-14 23:58N 50°48' W 001°07'0 0.0
2018-Jun-14 23:28N 50°48' W 001°07'0 0.0
2018-Jun-14 22:58N 50°48' W 001°07'0 0.0
2018-Jun-14 22:28N 50°48' W 001°07'0 0.0
2018-Jun-14 21:58N 50°48' W 001°07'0 0.0
2018-Jun-14 21:28N 50°48' W 001°07'0 0.0
2018-Jun-14 20:58N 50°48' W 001°07'0 0.0
2018-Jun-14 20:28N 50°48' W 001°07'0 0.0
2018-Jun-14 19:58N 50°48' W 001°07'0 0.0
2018-Jun-14 19:28N 50°48' W 001°07'0 0.0
2018-Jun-14 18:58N 50°48' W 001°07'0 0.0
2018-Jun-14 18:28N 50°48' W 001°07'0 0.0
2018-Jun-14 17:58N 50°48' W 001°07'0 0.0
2018-Jun-14 17:28N 50°48' W 001°07'0 0.0
2018-Jun-14 16:58N 50°48' W 001°07'0 0.0
2018-Jun-14 16:28N 50°48' W 001°07'0 0.0
2018-Jun-14 15:58N 50°48' W 001°07'0 0.0
2018-Jun-14 15:28N 50°48' W 001°07'0 0.0
2018-Jun-14 14:58N 50°48' W 001°07'0 0.0
2018-Jun-14 14:28N 50°48' W 001°07'0 0.0
2018-Jun-14 13:58N 50°48' W 001°07'0 0.0
2018-Jun-14 13:28N 50°48' W 001°07'0 0.0
2018-Jun-14 12:58N 50°48' W 001°07'0 0.0
2018-Jun-14 12:28N 50°48' W 001°07'0 0.0
2018-Jun-14 11:58N 50°48' W 001°07'0 0.0
2018-Jun-14 11:28N 50°48' W 001°07'0 0.0
2018-Jun-14 10:58N 50°48' W 001°07'0 0.0
2018-Jun-14 10:28N 50°48' W 001°07'0 0.0
2018-Jun-14 09:58N 50°48' W 001°07'0 0.0
2018-Jun-14 09:28N 50°48' W 001°07'0 0.0
2018-Jun-14 08:58N 50°48' W 001°07'0 0.0
2018-Jun-14 08:28N 50°48' W 001°07'0 0.0
2018-Jun-14 07:58N 50°48' W 001°07'0 0.0
2018-Jun-14 07:28N 50°48' W 001°07'0 0.0
2018-Jun-14 06:58N 50°48' W 001°07'0 0.0
2018-Jun-14 06:28N 50°48' W 001°07'0 0.0
2018-Jun-14 05:58N 50°48' W 001°07'0 0.0
2018-Jun-14 05:28N 50°48' W 001°07'0 0.0
2018-Jun-14 04:58N 50°48' W 001°07'0 0.0
2018-Jun-14 04:28N 50°48' W 001°07'0 0.0
2018-Jun-14 03:58N 50°48' W 001°07'0 0.0
2018-Jun-14 03:28N 50°48' W 001°07'0 0.0
2018-Jun-14 02:58N 50°48' W 001°07'0 0.0
2018-Jun-14 02:28N 50°48' W 001°07'0 0.0
2018-Jun-14 01:58N 50°48' W 001°07'0 0.0
2018-Jun-14 01:28N 50°48' W 001°07'0 0.0
2018-Jun-14 00:58N 50°48' W 001°07'0 0.0
2018-Jun-14 00:28N 50°48' W 001°07'0 0.0
2018-Jun-13 23:58N 50°48' W 001°07'0 0.0
2018-Jun-13 23:28N 50°48' W 001°07'0 0.0
2018-Jun-13 22:58N 50°48' W 001°07'0 0.0
2018-Jun-13 22:28N 50°48' W 001°07'0 0.0
2018-Jun-13 21:58N 50°48' W 001°07'0 0.0
2018-Jun-13 21:28N 50°48' W 001°07'0 0.0
2018-Jun-13 20:58N 50°48' W 001°07'0 0.0
2018-Jun-13 20:28N 50°48' W 001°07'0 0.0
2018-Jun-13 19:58N 50°48' W 001°07'0 0.0
2018-Jun-13 19:28N 50°48' W 001°07'0 0.0
2018-Jun-13 18:58N 50°48' W 001°07'0 0.0
2018-Jun-13 18:28N 50°48' W 001°07'0 0.0
2018-Jun-13 17:58N 50°48' W 001°07'0 0.0
2018-Jun-13 17:28N 50°48' W 001°07'0 0.0
2018-Jun-13 16:58N 50°48' W 001°07'0 0.0
2018-Jun-13 16:28N 50°48' W 001°07'0 0.0
2018-Jun-13 15:58N 50°48' W 001°07'0 0.0
2018-Jun-13 15:28N 50°48' W 001°07'0 0.0
2018-Jun-13 14:58N 50°48' W 001°07'0 0.0
2018-Jun-13 14:28N 50°48' W 001°07'0 0.0
2018-Jun-13 13:58N 50°48' W 001°07'0 0.0
2018-Jun-13 13:28N 50°48' W 001°07'0 0.0
2018-Jun-13 12:58N 50°48' W 001°07'0 0.0
2018-Jun-13 12:28N 50°48' W 001°07'0 0.0
2018-Jun-13 11:58N 50°48' W 001°07'0 0.0
2018-Jun-13 11:28N 50°48' W 001°07'0 0.0
2018-Jun-13 10:58N 50°48' W 001°07'0 0.0
2018-Jun-13 10:25N 50°48' W 001°07'0 0.0
2018-Jun-13 09:58N 50°48' W 001°07'0 0.0
2018-Jun-13 09:25N 50°48' W 001°07'0 0.0
2018-Jun-13 08:58N 50°48' W 001°07'0 0.0
2018-Jun-13 08:28N 50°48' W 001°07'0 0.0
2018-Jun-13 07:58N 50°48' W 001°07'0 0.0
2018-Jun-13 07:28N 50°48' W 001°07'0 0.0
2018-Jun-13 06:58N 50°48' W 001°07'0 0.0
2018-Jun-13 06:28N 50°48' W 001°07'0 0.0
2018-Jun-13 05:58N 50°48' W 001°07'0 0.0
2018-Jun-13 05:31N 50°48' W 001°07'0 0.0
2018-Jun-13 04:58N 50°48' W 001°07'0 0.0
2018-Jun-13 04:28N 50°48' W 001°07'0 0.0
2018-Jun-13 03:55N 50°48' W 001°07'0 0.0
2018-Jun-13 03:25N 50°48' W 001°07'0 0.0
2018-Jun-13 02:58N 50°48' W 001°07'0 0.0
2018-Jun-13 02:25N 50°48' W 001°07'0 0.0
2018-Jun-13 01:58N 50°48' W 001°07'0 0.0
2018-Jun-13 01:28N 50°48' W 001°07'0 0.0
2018-Jun-13 00:58N 50°48' W 001°07'0 0.0
2018-Jun-13 00:31N 50°48' W 001°07'0 0.0
2018-Jun-12 23:58N 50°48' W 001°07'0 0.0
2018-Jun-12 23:28N 50°48' W 001°07'0 0.0
2018-Jun-12 22:58N 50°48' W 001°07'0 0.0
2018-Jun-12 22:28N 50°48' W 001°07'0 0.0
2018-Jun-12 21:58N 50°48' W 001°07'0 0.0
2018-Jun-12 21:28N 50°48' W 001°07'0 0.0
2018-Jun-12 20:58N 50°48' W 001°07'0 0.0
2018-Jun-12 20:28N 50°48' W 001°07'0 0.0
2018-Jun-12 19:58N 50°48' W 001°07'0 0.0
2018-Jun-12 19:28N 50°48' W 001°07'0 0.0
2018-Jun-12 18:58N 50°48' W 001°07'0 0.0
2018-Jun-12 18:27N 50°48' W 001°07'0 0.0
2018-Jun-12 17:58N 50°48' W 001°07'0 0.0
2018-Jun-12 17:28N 50°48' W 001°07'0 0.0
2018-Jun-12 17:00N 50°48' W 001°07'0 0.0
2018-Jun-12 16:31N 50°48' W 001°07'0 0.0
2018-Jun-12 15:58N 50°48' W 001°07'0 0.0
2018-Jun-12 15:28N 50°48' W 001°07'0 0.0
2018-Jun-12 14:58N 50°48' W 001°07'0 0.0
2018-Jun-12 14:31N 50°48' W 001°07'0 0.0
2018-Jun-12 14:01N 50°48' W 001°07'0 0.0
2018-Jun-12 13:31N 50°48' W 001°07'0 0.0
2018-Jun-12 12:58N 50°48' W 001°07'0 0.0
2018-Jun-12 12:31N 50°48' W 001°07'0 0.0
2018-Jun-12 12:01N 50°48' W 001°07'0 0.0
2018-Jun-12 11:31N 50°48' W 001°07'0 0.0
2018-Jun-12 10:58N 50°48' W 001°07'0 0.0
2018-Jun-12 10:28N 50°48' W 001°07'0 0.6
2018-Jun-12 10:00N 50°47' W 001°07'4 7.3
2018-Jun-12 09:30N 50°44' W 001°04'2 3.2
2018-Jun-12 09:00N 50°43' W 001°03'0 0.2
2018-Jun-12 08:28N 50°43' W 001°03'0 0.0
2018-Jun-12 07:58N 50°43' W 001°03'0 0.0
2018-Jun-12 07:28N 50°43' W 001°03'0 0.0
2018-Jun-12 06:58N 50°42' W 001°03'0 0.0
2018-Jun-12 06:28N 50°42' W 001°03'0 0.0
2018-Jun-12 05:55N 50°42' W 001°03'0 0.0
2018-Jun-12 05:13N 50°42' W 001°03'0 0.0
2018-Jun-12 04:58N 50°42' W 001°03'0 0.0
2018-Jun-12 04:22N 50°42' W 001°03'0 0.0
2018-Jun-12 03:58N 50°42' W 001°03'0 0.0
2018-Jun-12 03:28N 50°42' W 001°03'0 0.0
2018-Jun-12 02:58N 50°42' W 001°03'0 0.0
2018-Jun-12 02:25N 50°42' W 001°03'0 0.0
2018-Jun-12 01:58N 50°42' W 001°03'0 0.0
2018-Jun-12 01:28N 50°42' W 001°03'0 0.0
2018-Jun-12 00:55N 50°42' W 001°03'0 0.0
2018-Jun-12 00:28N 50°42' W 001°03'0 0.0
2018-Jun-11 23:58N 50°42' W 001°03'0 0.0
2018-Jun-11 23:28N 50°43' W 001°03'0 0.0
2018-Jun-11 22:58N 50°43' W 001°03'0 0.0
2018-Jun-11 22:28N 50°43' W 001°03'0 0.0
2018-Jun-11 21:58N 50°43' W 001°03'0 0.0
2018-Jun-11 21:28N 50°43' W 001°03'0 0.0
2018-Jun-11 20:58N 50°43' W 001°03'0 0.0
2018-Jun-11 20:28N 50°43' W 001°03'0 0.0
2018-Jun-11 19:58N 50°43' W 001°03'0 0.0
2018-Jun-11 19:28N 50°43' W 001°03'0 0.0
2018-Jun-11 18:58N 50°43' W 001°03'0 0.0
2018-Jun-11 18:28N 50°43' W 001°03'0 0.0
2018-Jun-11 17:58N 50°43' W 001°03'0 0.0
2018-Jun-11 17:28N 50°42' W 001°03'0 0.0
2018-Jun-11 16:58N 50°43' W 001°03'0 0.0
2018-Jun-11 16:28N 50°43' W 001°03'0 0.0
2018-Jun-11 15:58N 50°43' W 001°03'0 0.0
2018-Jun-11 15:28N 50°43' W 001°03'0 0.0
2018-Jun-11 14:58N 50°43' W 001°03'0 0.0
2018-Jun-11 14:28N 50°43' W 001°03'0 0.0
2018-Jun-11 13:58N 50°42' W 001°03'0 0.0
2018-Jun-11 13:28N 50°42' W 001°03'0 0.0
2018-Jun-11 12:58N 50°42' W 001°03'0 0.0
2018-Jun-11 12:28N 50°42' W 001°03'0 0.0
2018-Jun-11 11:58N 50°42' W 001°03'0 0.0
2018-Jun-11 11:28N 50°43' W 001°03'0 0.1
2018-Jun-11 10:58N 50°43' W 001°03'0 0.0
2018-Jun-11 10:28N 50°43' W 001°03'0 0.5
2018-Jun-11 10:00N 50°43' W 001°03'3 5.9
2018-Jun-11 09:30N 50°40' W 000°60'3 6.0
2018-Jun-11 08:59N 50°37' W 000°60'20 6.9
2018-Jun-11 06:03N 50°29' W 001°29'0 8.4
2018-Jun-11 06:00N 50°29' W 001°29'54 6.0
2018-Jun-10 20:57N 50°13' W 002°51'3 6.2
2018-Jun-10 20:27N 50°13' W 002°56'3 6.9
2018-Jun-10 20:00N 50°12' W 003°01'4 7.2
2018-Jun-10 19:30N 50°11' W 003°06'4 7.2
2018-Jun-10 19:00N 50°10' W 003°11'4 7.3
2018-Jun-10 18:30N 50°09' W 003°17'4 7.3
2018-Jun-10 18:01N 50°08' W 003°22'4 7.5
2018-Jun-10 17:31N 50°07' W 003°28'4 7.5
2018-Jun-10 17:01N 50°06' W 003°34'4 7.5
2018-Jun-10 16:28N 50°05' W 003°40'9 7.0
2018-Jun-10 15:09N 50°03' W 003°54'1 6.9
2018-Jun-10 14:57N 50°02' W 003°56'  

Dump ship's entire track history